createdAt,value
2017-11-30T00:00:28.963Z,86.26
2017-11-30T00:01:28.941Z,86.26
2017-11-30T00:02:28.922Z,86.07
2017-11-30T00:03:28.903Z,86.07
2017-11-30T00:04:28.882Z,86.45
2017-11-30T00:05:28.860Z,86.07
2017-11-30T00:06:28.843Z,85.97
2017-11-30T00:07:28.813Z,86.16
2017-11-30T00:08:28.790Z,86.16
2017-11-30T00:09:28.767Z,86.07
2017-11-30T00:10:28.748Z,85.31
2017-11-30T00:11:28.837Z,85.78
2017-11-30T00:12:28.702Z,85.69
2017-11-30T00:13:28.688Z,85.60
2017-11-30T00:14:28.663Z,85.60
2017-11-30T00:15:28.641Z,85.88
2017-11-30T00:16:28.625Z,86.64
2017-11-30T00:17:28.623Z,86.16
2017-11-30T00:18:28.577Z,86.55
2017-11-30T00:19:28.566Z,86.55
2017-11-30T00:20:28.534Z,86.74
2017-11-30T00:21:28.514Z,86.74
2017-11-30T00:22:28.490Z,86.07
2017-11-30T00:23:28.471Z,86.07
2017-11-30T00:24:28.448Z,86.83
2017-11-30T00:25:28.428Z,86.64
2017-11-30T00:26:28.406Z,86.64
2017-11-30T00:27:28.386Z,86.83
2017-11-30T00:28:28.390Z,86.64
2017-11-30T00:29:28.337Z,87.16
2017-11-30T00:30:28.320Z,87.16
2017-11-30T00:31:28.303Z,87.35
2017-11-30T00:32:28.279Z,87.02
2017-11-30T00:33:28.260Z,87.35
2017-11-30T00:34:28.235Z,87.02
2017-11-30T00:35:28.219Z,87.12
2017-11-30T00:36:28.190Z,86.93
2017-11-30T00:37:28.173Z,87.49
2017-11-30T00:38:28.147Z,87.21
2017-11-30T00:39:28.127Z,86.74
2017-11-30T00:40:28.105Z,86.83
2017-11-30T00:41:28.085Z,87.21
2017-11-30T00:42:28.061Z,86.35
2017-11-30T00:43:28.041Z,87.21
2017-11-30T00:44:28.016Z,86.64
2017-11-30T00:45:27.997Z,86.60
2017-11-30T00:46:27.971Z,86.64
2017-11-30T00:47:27.956Z,86.60
2017-11-30T00:48:27.938Z,87.40
2017-11-30T00:49:27.905Z,87.21
2017-11-30T00:50:27.888Z,86.64
2017-11-30T00:51:27.872Z,86.60
2017-11-30T00:52:27.846Z,86.60
2017-11-30T00:53:27.824Z,87.26
2017-11-30T00:54:27.804Z,87.21
2017-11-30T00:55:27.783Z,87.30
2017-11-30T00:56:27.759Z,87.21
2017-11-30T00:57:27.746Z,87.02
2017-11-30T00:58:27.730Z,86.88
2017-11-30T00:59:27.695Z,87.16
2017-11-30T01:00:27.673Z,87.07
2017-11-30T01:01:27.654Z,87.21
2017-11-30T01:02:27.632Z,86.41
2017-11-30T01:03:27.610Z,87.30
2017-11-30T01:04:27.587Z,87.40
2017-11-30T01:05:27.568Z,87.21
2017-11-30T01:06:27.544Z,86.26
2017-11-30T01:07:27.536Z,86.26
2017-11-30T01:08:27.504Z,86.35
2017-11-30T01:09:27.477Z,85.88
2017-11-30T01:10:27.460Z,85.88
2017-11-30T01:11:27.435Z,86.35
2017-11-30T01:12:27.413Z,86.07
2017-11-30T01:13:27.392Z,86.74
2017-11-30T01:14:27.371Z,86.35
2017-11-30T01:15:27.350Z,86.83
2017-11-30T01:16:27.328Z,86.64
2017-11-30T01:17:27.314Z,86.74
2017-11-30T01:18:27.285Z,87.21
2017-11-30T01:19:27.265Z,87.40
2017-11-30T01:20:27.243Z,87.21
2017-11-30T01:21:27.215Z,87.40
2017-11-30T01:22:27.198Z,86.64
2017-11-30T01:23:27.170Z,86.55
2017-11-30T01:24:27.155Z,86.64
2017-11-30T01:25:27.134Z,86.45
2017-11-30T01:26:27.113Z,86.50
2017-11-30T01:27:27.091Z,87.07
2017-11-30T01:28:27.070Z,87.83
2017-11-30T01:29:27.049Z,87.21
2017-11-30T01:30:27.032Z,87.35
2017-11-30T01:31:27.006Z,87.40
2017-11-30T01:32:26.983Z,87.21
2017-11-30T01:33:26.961Z,87.21
2017-11-30T01:34:26.939Z,87.49
2017-11-30T01:35:26.921Z,86.74
2017-11-30T01:36:26.896Z,86.64
2017-11-30T01:37:26.874Z,86.55
2017-11-30T01:38:26.854Z,86.45
2017-11-30T01:39:26.834Z,86.83
2017-11-30T01:40:26.810Z,86.64
2017-11-30T01:41:26.788Z,86.55
2017-11-30T01:42:26.767Z,86.74
2017-11-30T01:43:26.747Z,86.35
2017-11-30T01:44:26.722Z,86.83
2017-11-30T01:45:26.703Z,86.64
2017-11-30T01:46:26.681Z,86.83
2017-11-30T01:47:26.661Z,86.55
2017-11-30T01:48:26.638Z,86.35
2017-11-30T01:49:26.617Z,86.45
2017-11-30T01:50:26.595Z,86.07
2017-11-30T01:51:26.578Z,86.35
2017-11-30T01:52:26.554Z,86.35
2017-11-30T01:53:26.528Z,86.93
2017-11-30T01:54:26.509Z,86.45
2017-11-30T01:55:26.488Z,86.26
2017-11-30T01:56:26.462Z,86.74
2017-11-30T01:57:26.443Z,86.83
2017-11-30T01:58:26.423Z,86.26
2017-11-30T01:59:26.413Z,86.26
2017-11-30T02:00:26.379Z,86.55
2017-11-30T02:01:26.358Z,86.74
2017-11-30T02:02:26.334Z,86.07
2017-11-30T02:03:26.315Z,86.35
2017-11-30T02:04:26.293Z,86.16
2017-11-30T02:05:26.272Z,86.16
2017-11-30T02:06:26.251Z,86.93
2017-11-30T02:07:26.226Z,85.97
2017-11-30T02:08:26.207Z,86.26
2017-11-30T02:09:26.185Z,86.07
2017-11-30T02:10:26.165Z,86.26
2017-11-30T02:11:26.143Z,86.16
2017-11-30T02:12:26.120Z,86.35
2017-11-30T02:13:26.099Z,86.07
2017-11-30T02:14:26.078Z,86.45
2017-11-30T02:15:26.069Z,86.26
2017-11-30T02:16:26.036Z,86.45
2017-11-30T02:17:26.012Z,86.64
2017-11-30T02:18:25.992Z,87.40
2017-11-30T02:19:25.972Z,87.21
2017-11-30T02:20:25.949Z,86.64
2017-11-30T02:21:25.935Z,86.55
2017-11-30T02:22:25.906Z,86.64
2017-11-30T02:23:25.885Z,86.74
2017-11-30T02:24:25.861Z,87.02
2017-11-30T02:25:25.840Z,86.64
2017-11-30T02:26:25.821Z,86.64
2017-11-30T02:27:25.799Z,87.21
2017-11-30T02:28:25.774Z,87.12
2017-11-30T02:29:25.762Z,87.12
2017-11-30T02:30:25.735Z,87.21
2017-11-30T02:31:25.713Z,87.40
2017-11-30T02:32:25.705Z,86.74
2017-11-30T02:33:25.669Z,86.35
2017-11-30T02:34:25.650Z,86.16
2017-11-30T02:35:25.627Z,86.35
2017-11-30T02:36:25.607Z,86.35
2017-11-30T02:37:25.584Z,86.45
2017-11-30T02:38:25.561Z,86.16
2017-11-30T02:39:25.540Z,86.45
2017-11-30T02:40:25.518Z,85.88
2017-11-30T02:41:25.499Z,86.07
2017-11-30T02:42:25.483Z,86.16
2017-11-30T02:43:25.452Z,86.83
2017-11-30T02:44:25.433Z,87.21
2017-11-30T02:45:25.417Z,86.45
2017-11-30T02:46:25.389Z,86.45
2017-11-30T02:47:25.370Z,86.64
2017-11-30T02:48:25.351Z,86.55
2017-11-30T02:49:25.325Z,86.83
2017-11-30T02:50:25.304Z,86.83
2017-11-30T02:51:25.286Z,86.35
2017-11-30T02:52:25.254Z,86.45
2017-11-30T02:53:25.238Z,86.35
2017-11-30T02:54:25.216Z,86.64
2017-11-30T02:55:25.203Z,86.45
2017-11-30T02:56:25.175Z,86.26
2017-11-30T02:57:25.147Z,86.64
2017-11-30T02:58:25.131Z,86.55
2017-11-30T02:59:25.110Z,85.88
2017-11-30T03:00:25.088Z,86.07
2017-11-30T03:01:25.064Z,86.16
2017-11-30T03:02:25.045Z,86.45
2017-11-30T03:03:25.027Z,86.55
2017-11-30T03:04:25.005Z,87.21
2017-11-30T03:05:24.979Z,86.83
2017-11-30T03:06:24.963Z,87.21
2017-11-30T03:07:24.940Z,87.30
2017-11-30T03:08:24.917Z,86.64
2017-11-30T03:09:24.895Z,86.35
2017-11-30T03:10:24.873Z,86.64
2017-11-30T03:11:24.852Z,87.49
2017-11-30T03:12:24.831Z,87.21
2017-11-30T03:13:24.809Z,87.21
2017-11-30T03:14:24.787Z,87.30
2017-11-30T03:15:24.767Z,87.30
2017-11-30T03:16:24.746Z,86.64
2017-11-30T03:17:24.723Z,86.45
2017-11-30T03:18:24.693Z,86.74
2017-11-30T03:19:24.678Z,86.35
2017-11-30T03:20:24.659Z,87.40
2017-11-30T03:21:24.642Z,87.02
2017-11-30T03:22:24.614Z,87.49
2017-11-30T03:23:24.593Z,87.02
2017-11-30T03:24:24.574Z,86.93
2017-11-30T03:25:24.553Z,86.64
2017-11-30T03:26:24.530Z,86.55
2017-11-30T03:27:24.508Z,86.64
2017-11-30T03:28:24.490Z,87.40
2017-11-30T03:29:24.467Z,87.40
2017-11-30T03:30:24.447Z,87.40
2017-11-30T03:31:24.424Z,87.68
2017-11-30T03:32:24.401Z,87.59
2017-11-30T03:33:24.383Z,87.77
2017-11-30T03:34:24.362Z,88.16
2017-11-30T03:35:24.336Z,88.06
2017-11-30T03:36:24.315Z,88.63
2017-11-30T03:37:24.293Z,89.20
2017-11-30T03:38:24.272Z,88.92
2017-11-30T03:39:24.251Z,88.82
2017-11-30T03:40:24.227Z,87.59
2017-11-30T03:41:24.206Z,88.16
2017-11-30T03:42:24.186Z,88.35
2017-11-30T03:43:24.164Z,88.25
2017-11-30T03:44:24.153Z,88.73
2017-11-30T03:45:24.128Z,88.40
2017-11-30T03:46:24.099Z,89.29
2017-11-30T03:47:24.078Z,89.29
2017-11-30T03:48:24.056Z,89.29
2017-11-30T03:49:24.045Z,89.34
2017-11-30T03:50:24.018Z,89.06
2017-11-30T03:51:23.992Z,89.06
2017-11-30T03:52:23.980Z,89.34
2017-11-30T03:53:23.957Z,90.01
2017-11-30T03:54:23.927Z,89.53
2017-11-30T03:55:23.921Z,89.82
2017-11-30T03:56:23.884Z,90.20
2017-11-30T03:57:23.863Z,89.63
2017-11-30T03:58:23.839Z,89.72
2017-11-30T03:59:23.820Z,90.48
2017-11-30T04:00:23.801Z,90.39
2017-11-30T04:01:23.774Z,89.63
2017-11-30T04:02:23.753Z,89.44
2017-11-30T04:03:23.732Z,89.06
2017-11-30T04:04:23.709Z,90.01
2017-11-30T04:05:23.697Z,90.10
2017-11-30T04:06:23.670Z,90.10
2017-11-30T04:07:23.646Z,90.48
2017-11-30T04:08:23.624Z,90.86
2017-11-30T04:09:23.603Z,91.24
2017-11-30T04:10:23.583Z,90.95
2017-11-30T04:11:23.560Z,91.05
2017-11-30T04:12:23.547Z,90.39
2017-11-30T04:13:23.517Z,90.95
2017-11-30T04:14:23.495Z,91.33
2017-11-30T04:15:23.469Z,90.95
2017-11-30T04:16:23.448Z,91.33
2017-11-30T04:17:23.426Z,90.95
2017-11-30T04:18:23.406Z,91.24
2017-11-30T04:19:23.383Z,90.58
2017-11-30T04:20:23.363Z,90.95
2017-11-30T04:21:23.339Z,90.58
2017-11-30T04:22:23.322Z,91.14
2017-11-30T04:23:23.313Z,91.52
2017-11-30T04:24:23.274Z,92.66
2017-11-30T04:25:23.261Z,92.28
2017-11-30T04:26:23.228Z,92.94
2017-11-30T04:27:23.212Z,92.57
2017-11-30T04:28:23.184Z,92.47
2017-11-30T04:29:23.163Z,92.76
2017-11-30T04:30:23.145Z,93.23
2017-11-30T04:31:23.120Z,93.23
2017-11-30T04:32:23.099Z,92.57
2017-11-30T04:33:23.133Z,92.66
2017-11-30T04:34:23.055Z,92.76
2017-11-30T04:35:23.034Z,92.57
2017-11-30T04:36:23.010Z,92.47
2017-11-30T04:37:22.988Z,92.57
2017-11-30T04:38:22.972Z,93.23
2017-11-30T04:39:22.945Z,93.70
2017-11-30T04:40:22.920Z,93.23
2017-11-30T04:41:22.897Z,92.57
2017-11-30T04:42:22.879Z,93.13
2017-11-30T04:43:22.856Z,92.94
2017-11-30T04:44:22.835Z,93.13
2017-11-30T04:45:22.810Z,93.80
2017-11-30T04:46:22.790Z,93.70
2017-11-30T04:47:22.758Z,92.85
2017-11-30T04:48:22.745Z,93.04
2017-11-30T04:49:22.719Z,93.42
2017-11-30T04:50:22.695Z,93.70
2017-11-30T04:51:22.679Z,93.51
2017-11-30T04:52:22.661Z,93.51
2017-11-30T04:53:22.661Z,93.04
2017-11-30T04:54:22.614Z,93.23
2017-11-30T04:55:22.592Z,92.85
2017-11-30T04:56:22.564Z,93.42
2017-11-30T04:57:22.540Z,93.23
2017-11-30T04:58:22.513Z,93.13
2017-11-30T04:59:22.495Z,93.70
2017-11-30T05:00:22.491Z,93.32
2017-11-30T05:01:22.453Z,93.23
2017-11-30T05:02:22.433Z,93.04
2017-11-30T05:03:22.442Z,92.47
2017-11-30T05:04:22.421Z,92.57
2017-11-30T05:05:22.363Z,93.32
2017-11-30T05:06:22.365Z,93.04
2017-11-30T05:07:22.320Z,93.51
2017-11-30T05:08:22.301Z,92.66
2017-11-30T05:09:22.280Z,93.04
2017-11-30T05:10:22.294Z,92.94
2017-11-30T05:11:22.258Z,92.66
2017-11-30T05:12:22.214Z,93.23
2017-11-30T05:13:22.189Z,93.23
2017-11-30T05:14:22.162Z,93.70
2017-11-30T05:15:22.150Z,93.42
2017-11-30T05:16:22.129Z,93.13
2017-11-30T05:17:22.119Z,93.04
2017-11-30T05:18:22.093Z,92.28
2017-11-30T05:19:22.057Z,91.62
2017-11-30T05:20:22.044Z,92.00
2017-11-30T05:21:22.013Z,92.47
2017-11-30T05:22:21.989Z,93.51
2017-11-30T05:23:21.981Z,93.04
2017-11-30T05:24:21.954Z,93.80
2017-11-30T05:25:21.929Z,93.32
2017-11-30T05:26:21.914Z,93.13
2017-11-30T05:27:21.930Z,92.66
2017-11-30T05:28:21.859Z,92.66
2017-11-30T05:29:21.860Z,92.66
2017-11-30T05:30:21.804Z,92.66
2017-11-30T05:31:21.798Z,93.13
2017-11-30T05:32:21.766Z,93.51
2017-11-30T05:33:21.773Z,92.57
2017-11-30T05:34:21.727Z,93.04
2017-11-30T05:35:21.701Z,93.42
2017-11-30T05:36:21.685Z,93.13
2017-11-30T05:37:21.654Z,93.80
2017-11-30T05:38:21.629Z,93.80
2017-11-30T05:39:21.610Z,93.23
2017-11-30T05:40:21.597Z,92.57
2017-11-30T05:41:21.569Z,92.28
2017-11-30T05:42:21.555Z,92.00
2017-11-30T05:43:21.540Z,92.94
2017-11-30T05:44:21.517Z,93.51
2017-11-30T05:45:21.485Z,92.66
2017-11-30T05:46:21.457Z,93.04
2017-11-30T05:47:21.427Z,93.23
2017-11-30T05:48:21.410Z,92.85
2017-11-30T05:49:21.381Z,93.70
2017-11-30T05:50:21.378Z,93.61
2017-11-30T05:51:21.367Z,93.70
2017-11-30T05:52:21.329Z,93.04
2017-11-30T05:53:21.374Z,93.51
2017-11-30T05:54:21.275Z,93.70
2017-11-30T05:55:21.255Z,93.04
2017-11-30T05:56:21.238Z,93.70
2017-11-30T05:57:21.230Z,93.99
2017-11-30T05:58:21.197Z,93.51
2017-11-30T05:59:21.164Z,94.37
2017-11-30T06:00:21.203Z,94.27
2017-11-30T06:01:21.115Z,94.37
2017-11-30T06:02:21.105Z,94.27
2017-11-30T06:03:21.087Z,94.37
2017-11-30T06:04:21.051Z,93.70
2017-11-30T06:05:21.043Z,93.89
2017-11-30T06:06:21.009Z,93.42
2017-11-30T06:07:20.987Z,93.51
2017-11-30T06:08:20.980Z,92.94
2017-11-30T06:09:20.959Z,92.66
2017-11-30T06:10:20.925Z,92.76
2017-11-30T06:11:20.911Z,93.70
2017-11-30T06:12:20.876Z,94.27
2017-11-30T06:13:20.880Z,93.80
2017-11-30T06:14:20.855Z,93.80
2017-11-30T06:15:20.807Z,93.70
2017-11-30T06:16:20.795Z,93.89
2017-11-30T06:17:20.796Z,93.61
2017-11-30T06:18:20.768Z,93.99
2017-11-30T06:19:20.733Z,94.93
2017-11-30T06:20:20.696Z,95.03
2017-11-30T06:21:20.677Z,94.93
2017-11-30T06:22:20.669Z,94.27
2017-11-30T06:23:20.639Z,94.65
2017-11-30T06:24:20.646Z,94.74
2017-11-30T06:25:20.602Z,95.03
2017-11-30T06:26:20.570Z,95.12
2017-11-30T06:27:20.550Z,94.93
2017-11-30T06:28:20.546Z,95.03
2017-11-30T06:29:20.499Z,94.93
2017-11-30T06:30:20.472Z,94.46
2017-11-30T06:31:20.450Z,93.99
2017-11-30T06:32:20.428Z,93.99
2017-11-30T06:33:20.407Z,94.37
2017-11-30T06:34:20.396Z,94.93
2017-11-30T06:35:20.416Z,94.18
2017-11-30T06:36:20.334Z,94.27
2017-11-30T06:37:20.318Z,94.56
2017-11-30T06:38:20.337Z,93.80
2017-11-30T06:39:20.271Z,94.27
2017-11-30T06:40:20.271Z,94.93
2017-11-30T06:41:20.240Z,94.37
2017-11-30T06:42:20.213Z,94.27
2017-11-30T06:43:20.201Z,93.99
2017-11-30T06:44:20.177Z,94.08
2017-11-30T06:45:20.158Z,93.89
2017-11-30T06:46:20.125Z,93.70
2017-11-30T06:47:20.103Z,94.08
2017-11-30T06:48:20.108Z,94.56
2017-11-30T06:49:20.080Z,95.03
2017-11-30T06:50:20.029Z,94.93
2017-11-30T06:51:20.017Z,94.08
2017-11-30T06:52:19.983Z,94.18
2017-11-30T06:53:20.021Z,94.08
2017-11-30T06:54:19.999Z,94.65
2017-11-30T06:55:19.907Z,94.37
2017-11-30T06:56:19.892Z,94.08
2017-11-30T06:57:19.868Z,94.46
2017-11-30T06:58:19.855Z,93.70
2017-11-30T06:59:19.844Z,93.99
2017-11-30T07:00:19.830Z,94.27
2017-11-30T07:01:19.784Z,95.03
2017-11-30T07:02:19.757Z,94.74
2017-11-30T07:03:19.756Z,94.65
2017-11-30T07:04:19.711Z,94.37
2017-11-30T07:05:19.693Z,94.37
2017-11-30T07:06:19.697Z,94.56
2017-11-30T07:07:19.643Z,94.27
2017-11-30T07:08:19.638Z,94.27
2017-11-30T07:09:19.648Z,94.27
2017-11-30T07:10:19.581Z,94.37
2017-11-30T07:11:19.574Z,94.37
2017-11-30T07:12:19.535Z,95.22
2017-11-30T07:13:19.530Z,95.69
2017-11-30T07:14:19.492Z,94.84
2017-11-30T07:15:19.494Z,94.74
2017-11-30T07:16:19.455Z,94.74
2017-11-30T07:17:19.423Z,94.56
2017-11-30T07:18:19.410Z,94.93
2017-11-30T07:19:19.386Z,94.93
2017-11-30T07:20:19.358Z,94.74
2017-11-30T07:21:19.338Z,94.93
2017-11-30T07:22:19.324Z,95.31
2017-11-30T07:23:19.293Z,95.41
2017-11-30T07:24:19.274Z,95.60
2017-11-30T07:25:19.249Z,95.50
2017-11-30T07:26:19.224Z,95.12
2017-11-30T07:27:19.246Z,94.74
2017-11-30T07:28:19.199Z,95.12
2017-11-30T07:29:19.171Z,96.55
2017-11-30T07:30:19.170Z,95.98
2017-11-30T07:31:19.132Z,95.69
2017-11-30T07:32:19.102Z,95.88
2017-11-30T07:33:19.073Z,96.36
2017-11-30T07:34:19.076Z,95.88
2017-11-30T07:35:19.041Z,95.79
2017-11-30T07:36:19.007Z,95.55
2017-11-30T07:37:19.012Z,95.65
2017-11-30T07:38:18.976Z,96.17
2017-11-30T07:39:18.944Z,96.22
2017-11-30T07:40:18.915Z,95.74
2017-11-30T07:41:18.894Z,95.60
2017-11-30T07:42:18.887Z,95.93
2017-11-30T07:43:18.861Z,95.69
2017-11-30T07:44:18.833Z,96.12
2017-11-30T07:45:18.839Z,96.12
2017-11-30T07:46:18.792Z,96.41
2017-11-30T07:47:18.764Z,96.07
2017-11-30T07:48:18.744Z,95.41
2017-11-30T07:49:18.753Z,95.65
2017-11-30T07:50:18.698Z,95.93
2017-11-30T07:51:18.681Z,95.45
2017-11-30T07:52:18.656Z,96.31
2017-11-30T07:53:18.634Z,96.12
2017-11-30T07:54:18.612Z,96.22
2017-11-30T07:55:18.606Z,95.93
2017-11-30T07:56:18.580Z,96.12
2017-11-30T07:57:18.556Z,95.74
2017-11-30T07:58:18.533Z,95.45
2017-11-30T07:59:18.505Z,96.03
2017-11-30T08:00:18.478Z,95.55
2017-11-30T08:01:18.448Z,95.74
2017-11-30T08:02:18.467Z,95.60
2017-11-30T08:03:18.458Z,95.55
2017-11-30T08:04:18.428Z,95.74
2017-11-30T08:05:18.405Z,96.22
2017-11-30T08:06:18.370Z,95.84
2017-11-30T08:07:18.323Z,96.17
2017-11-30T08:08:18.298Z,95.84
2017-11-30T08:09:18.288Z,95.93
2017-11-30T08:10:18.270Z,95.65
2017-11-30T08:11:18.268Z,96.12
2017-11-30T08:12:18.215Z,95.45
2017-11-30T08:13:18.202Z,95.69
2017-11-30T08:14:18.202Z,96.07
2017-11-30T08:15:18.157Z,95.98
2017-11-30T08:16:18.132Z,96.07
2017-11-30T08:17:18.123Z,95.36
2017-11-30T08:18:18.084Z,95.60
2017-11-30T08:19:18.063Z,95.79
2017-11-30T08:20:18.070Z,96.26
2017-11-30T08:21:18.033Z,96.12
2017-11-30T08:22:17.996Z,96.07
2017-11-30T08:23:17.976Z,96.31
2017-11-30T08:24:17.956Z,95.50
2017-11-30T08:25:17.954Z,95.65
2017-11-30T08:26:17.916Z,96.12
2017-11-30T08:27:17.901Z,95.45
2017-11-30T08:28:17.863Z,96.41
2017-11-30T08:29:17.859Z,96.12
2017-11-30T08:30:17.831Z,95.55
2017-11-30T08:31:17.799Z,95.74
2017-11-30T08:32:17.812Z,95.45
2017-11-30T08:33:17.763Z,95.17
2017-11-30T08:34:17.736Z,95.45
2017-11-30T08:35:17.748Z,95.55
2017-11-30T08:36:17.703Z,95.84
2017-11-30T08:37:17.717Z,94.98
2017-11-30T08:38:17.688Z,95.55
2017-11-30T08:39:17.691Z,95.17
2017-11-30T08:40:17.639Z,95.55
2017-11-30T08:41:17.579Z,96.12
2017-11-30T08:42:17.580Z,94.98
2017-11-30T08:43:17.548Z,94.70
2017-11-30T08:44:17.517Z,95.17
2017-11-30T08:45:17.523Z,95.07
2017-11-30T08:47:17.447Z,94.51
2017-11-30T08:48:17.422Z,94.04
2017-11-30T08:49:17.409Z,93.84
2017-11-30T08:50:17.428Z,93.75
2017-11-30T08:51:17.358Z,93.37
2017-11-30T08:52:17.374Z,93.23
2017-11-30T08:53:17.355Z,93.80
2017-11-30T08:54:17.331Z,93.80
2017-11-30T08:55:17.296Z,93.04
2017-11-30T08:56:17.265Z,92.85
2017-11-30T08:57:17.231Z,92.47
2017-11-30T08:58:17.264Z,92.85
2017-11-30T08:59:17.202Z,91.99
2017-11-30T09:00:17.180Z,92.57
2017-11-30T09:01:17.153Z,93.13
2017-11-30T09:02:17.142Z,91.99
2017-11-30T09:03:17.113Z,92.57
2017-11-30T09:04:17.078Z,92.57
2017-11-30T09:05:17.069Z,92.76
2017-11-30T09:06:17.055Z,92.57
2017-11-30T09:07:17.055Z,91.71
2017-11-30T09:08:16.993Z,91.61
2017-11-30T09:09:17.032Z,91.05
2017-11-30T09:10:16.966Z,90.86
2017-11-30T09:11:17.001Z,91.24
2017-11-30T09:12:16.929Z,90.86
2017-11-30T09:13:16.893Z,91.33
2017-11-30T09:14:16.860Z,91.80
2017-11-30T09:15:16.861Z,90.86
2017-11-30T09:16:16.844Z,91.33
2017-11-30T09:17:16.815Z,90.76
2017-11-30T09:18:16.798Z,90.86
2017-11-30T09:19:16.774Z,91.05
2017-11-30T09:20:16.754Z,91.24
2017-11-30T09:21:16.719Z,91.52
2017-11-30T09:22:16.712Z,91.42
2017-11-30T09:23:16.675Z,91.90
2017-11-30T09:24:16.661Z,92.38
2017-11-30T09:25:16.646Z,91.90
2017-11-30T09:26:16.623Z,91.61
2017-11-30T09:27:16.599Z,91.99
2017-11-30T09:28:16.583Z,91.33
2017-11-30T09:29:16.544Z,91.61
2017-11-30T09:30:16.553Z,91.80
2017-11-30T09:31:16.511Z,91.80
2017-11-30T09:32:16.485Z,92.09
2017-11-30T09:33:16.477Z,92.28
2017-11-30T09:34:16.451Z,91.99
2017-11-30T09:35:16.423Z,91.33
2017-11-30T09:36:16.413Z,91.42
2017-11-30T09:37:16.403Z,91.90
2017-11-30T09:38:16.445Z,91.71
2017-11-30T09:39:16.388Z,91.42
2017-11-30T09:40:16.324Z,91.61
2017-11-30T09:41:16.308Z,91.80
2017-11-30T09:42:16.280Z,91.42
2017-11-30T09:43:16.263Z,91.99
2017-11-30T09:44:16.245Z,91.61
2017-11-30T09:45:16.212Z,91.71
2017-11-30T09:46:16.215Z,91.71
2017-11-30T09:47:16.222Z,91.52
2017-11-30T09:48:16.226Z,91.05
2017-11-30T09:49:16.138Z,91.05
2017-11-30T09:50:16.121Z,91.24
2017-11-30T09:51:16.107Z,91.33
2017-11-30T09:52:16.075Z,91.24
2017-11-30T09:53:16.040Z,90.95
2017-11-30T09:54:16.051Z,91.14
2017-11-30T09:55:16.039Z,90.38
2017-11-30T09:56:15.989Z,91.33
2017-11-30T09:57:15.964Z,90.48
2017-11-30T09:58:15.946Z,90.67
2017-11-30T09:59:15.934Z,91.24
2017-11-30T10:00:15.913Z,90.86
2017-11-30T10:01:15.871Z,91.47
2017-11-30T10:02:15.880Z,90.67
2017-11-30T10:03:15.833Z,91.00
2017-11-30T10:04:15.815Z,90.81
2017-11-30T10:05:15.797Z,91.28
2017-11-30T10:06:15.777Z,91.47
2017-11-30T10:07:15.744Z,90.90
2017-11-30T10:08:15.745Z,90.52
2017-11-30T10:09:15.722Z,90.52
2017-11-30T10:10:15.725Z,90.81
2017-11-30T10:11:15.663Z,90.52
2017-11-30T10:12:15.651Z,90.52
2017-11-30T10:13:15.644Z,90.62
2017-11-30T10:14:15.611Z,90.62
2017-11-30T10:15:15.577Z,90.62
2017-11-30T10:16:15.558Z,90.52
2017-11-30T10:17:15.556Z,91.47
2017-11-30T10:18:15.528Z,91.28
2017-11-30T10:19:15.501Z,91.28
2017-11-30T10:20:15.496Z,90.90
2017-11-30T10:21:16.194Z,90.52
2017-11-30T10:22:15.512Z,90.62
2017-11-30T10:23:15.466Z,90.38
2017-11-30T10:24:15.413Z,91.09
2017-11-30T10:25:15.393Z,91.00
2017-11-30T10:26:15.373Z,91.05
2017-11-30T10:27:15.330Z,91.38
2017-11-30T10:28:15.310Z,91.61
2017-11-30T10:29:15.310Z,91.28
2017-11-30T10:30:15.271Z,91.42
2017-11-30T10:31:15.284Z,91.66
2017-11-30T10:32:15.258Z,91.61
2017-11-30T10:33:15.202Z,91.47
2017-11-30T10:34:15.206Z,91.00
2017-11-30T10:35:15.168Z,91.66
2017-11-30T10:36:15.170Z,91.47
2017-11-30T10:37:15.167Z,91.19
2017-11-30T10:38:15.170Z,91.47
2017-11-30T10:39:15.125Z,91.28
2017-11-30T10:40:15.083Z,90.52
2017-11-30T10:41:15.153Z,90.43
2017-11-30T10:42:15.113Z,90.52
2017-11-30T10:43:15.047Z,91.09
2017-11-30T10:44:15.012Z,91.75
2017-11-30T10:45:15.016Z,92.14
2017-11-30T10:46:14.974Z,91.99
2017-11-30T10:47:14.960Z,91.75
2017-11-30T10:48:14.978Z,92.71
2017-11-30T10:49:14.897Z,92.90
2017-11-30T10:50:14.887Z,91.66
2017-11-30T10:51:14.884Z,92.04
2017-11-30T10:52:14.899Z,91.47
2017-11-30T10:53:14.910Z,92.23
2017-11-30T10:54:15.700Z,92.04
2017-11-30T10:55:14.772Z,91.47
2017-11-30T10:56:14.793Z,91.75
2017-11-30T10:57:14.712Z,91.85
2017-11-30T10:58:14.700Z,91.47
2017-11-30T10:59:14.682Z,91.28
2017-11-30T11:00:14.668Z,91.28
2017-11-30T11:01:14.659Z,91.09
2017-11-30T11:02:14.684Z,91.47
2017-11-30T11:03:14.699Z,91.38
2017-11-30T11:04:14.719Z,91.38
2017-11-30T11:05:14.573Z,91.00
2017-11-30T11:06:14.533Z,91.47
2017-11-30T11:07:14.537Z,91.47
2017-11-30T11:08:14.517Z,91.28
2017-11-30T11:09:14.471Z,91.28
2017-11-30T11:10:14.468Z,91.28
2017-11-30T11:11:14.433Z,90.81
2017-11-30T11:12:14.424Z,90.71
2017-11-30T11:13:14.434Z,91.09
2017-11-30T11:14:14.407Z,90.81
2017-11-30T11:15:14.381Z,90.62
2017-11-30T11:16:14.379Z,89.86
2017-11-30T11:17:14.320Z,89.48
2017-11-30T11:18:14.360Z,89.95
2017-11-30T11:19:14.342Z,90.62
2017-11-30T11:20:14.267Z,90.33
2017-11-30T11:21:14.233Z,91.00
2017-11-30T11:22:14.283Z,91.09
2017-11-30T11:23:14.171Z,90.81
2017-11-30T11:24:14.180Z,91.19
2017-11-30T11:25:14.171Z,90.33
2017-11-30T11:26:14.111Z,91.09
2017-11-30T11:27:14.129Z,91.38
2017-11-30T11:28:14.100Z,91.56
2017-11-30T11:29:14.063Z,91.56
2017-11-30T11:30:14.570Z,91.38
2017-11-30T11:31:13.998Z,91.28
2017-11-30T11:32:13.976Z,91.09
2017-11-30T11:33:13.984Z,91.09
2017-11-30T11:34:13.948Z,91.28
2017-11-30T11:35:13.944Z,91.75
2017-11-30T11:36:13.929Z,91.28
2017-11-30T11:37:13.879Z,91.28
2017-11-30T11:38:13.854Z,90.90
2017-11-30T11:39:13.836Z,90.71
2017-11-30T11:40:13.833Z,90.05
2017-11-30T11:41:13.798Z,89.95
2017-11-30T11:42:13.798Z,89.39
2017-11-30T11:43:13.759Z,89.67
2017-11-30T11:44:13.737Z,90.33
2017-11-30T11:45:13.735Z,90.52
2017-11-30T11:46:13.692Z,90.43
2017-11-30T11:47:13.668Z,90.52
2017-11-30T11:48:13.668Z,90.52
2017-11-30T11:49:13.623Z,90.14
2017-11-30T11:50:13.631Z,89.67
2017-11-30T11:51:13.609Z,89.58
2017-11-30T11:52:13.670Z,89.86
2017-11-30T11:53:13.600Z,90.09
2017-11-30T11:54:13.519Z,89.62
2017-11-30T11:55:13.503Z,89.62
2017-11-30T11:56:13.481Z,89.43
2017-11-30T11:57:13.520Z,89.05
2017-11-30T11:58:13.486Z,88.57
2017-11-30T11:59:13.443Z,88.10
2017-11-30T12:00:13.405Z,87.82
2017-11-30T12:01:13.424Z,88.29
2017-11-30T12:02:13.354Z,88.86
2017-11-30T12:03:13.347Z,89.24
2017-11-30T12:04:13.309Z,89.05
2017-11-30T12:05:13.311Z,88.57
2017-11-30T12:06:13.275Z,88.39
2017-11-30T12:07:13.282Z,88.01
2017-11-30T12:08:13.253Z,88.01
2017-11-30T12:09:13.215Z,88.01
2017-11-30T12:10:13.195Z,88.20
2017-11-30T12:11:13.196Z,88.01
2017-11-30T12:12:13.166Z,87.91
2017-11-30T12:13:13.143Z,88.67
2017-11-30T12:14:13.146Z,88.01
2017-11-30T12:15:13.088Z,87.91
2017-11-30T12:16:13.070Z,88.29
2017-11-30T12:17:13.051Z,89.05
2017-11-30T12:18:13.037Z,88.67
2017-11-30T12:19:13.029Z,88.86
2017-11-30T12:20:12.998Z,89.05
2017-11-30T12:21:12.990Z,87.91
2017-11-30T12:22:13.042Z,87.43
2017-11-30T12:23:12.967Z,87.53
2017-11-30T12:24:12.911Z,87.24
2017-11-30T12:25:12.886Z,87.72
2017-11-30T12:26:12.883Z,88.39
2017-11-30T12:27:12.852Z,87.82
2017-11-30T12:28:12.831Z,87.72
2017-11-30T12:29:12.818Z,88.39
2017-11-30T12:30:12.825Z,88.48
2017-11-30T12:31:12.809Z,88.10
2017-11-30T12:32:12.752Z,88.20
2017-11-30T12:33:12.733Z,88.29
2017-11-30T12:34:12.756Z,88.76
2017-11-30T12:35:14.598Z,89.24
2017-11-30T12:36:12.756Z,89.43
2017-11-30T12:37:12.654Z,88.95
2017-11-30T12:38:12.634Z,89.05
2017-11-30T12:39:12.621Z,88.86
2017-11-30T12:40:12.593Z,88.67
2017-11-30T12:41:12.562Z,88.01
2017-11-30T12:42:12.585Z,88.20
2017-11-30T12:43:12.585Z,88.48
2017-11-30T12:44:12.515Z,87.91
2017-11-30T12:45:12.495Z,88.20
2017-11-30T12:46:12.473Z,87.82
2017-11-30T12:47:12.451Z,87.91
2017-11-30T12:48:12.439Z,88.48
2017-11-30T12:49:12.428Z,88.01
2017-11-30T12:50:12.403Z,87.34
2017-11-30T12:51:12.392Z,87.53
2017-11-30T12:52:12.430Z,86.49
2017-11-30T12:53:12.396Z,86.58